EZY29HQ EDDB-EGPH
Flight info
| Callsign | EZY29HQ |
|---|---|
| Flight time | N/A |
| Altitude | 36000 |
| Route | SUKIP3B SUKIP Y206 BUREL P203 HLZ L980 SAS DCT ISMEF DCT MEBIX DCT MIMVA L602 EMLON M79 TENDO DCT AGPED AGPED1E |
| Aircraft | A320/M-SDE3FGHIRWY/LB1 |
Departure
| Time | 2026-05-06 17:08 |
|---|---|
| Airport | Berlin Brandenburg Airport (EDDB) |
Arrival
| Time | N/A |
|---|---|
| Airport | Edinburgh Airport (EGPH) |
| Time | Latitude | Longitude | Altitude | Speed | Heading |
|---|---|---|---|---|---|
| 2026-05-06 16:40 | 52.36469 | 13.50544 | 155 ft | 0 kts | 69° |
| 2026-05-06 16:59 | 52.36465 | 13.50528 | 155 ft | 4 kts | 68° |
| 2026-05-06 16:59 | 52.36455 | 13.50487 | 155 ft | 4 kts | 66° |
| 2026-05-06 16:59 | 52.36444 | 13.50447 | 155 ft | 4 kts | 64° |
| 2026-05-06 16:59 | 52.36431 | 13.50408 | 155 ft | 4 kts | 59° |
| 2026-05-06 17:00 | 52.36416 | 13.50371 | 155 ft | 4 kts | 45° |
| 2026-05-06 17:00 | 52.36397 | 13.50351 | 155 ft | 4 kts | 351° |
| 2026-05-06 17:00 | 52.36393 | 13.50351 | 155 ft | 0 kts | 339° |
| 2026-05-06 17:03 | 52.36437 | 13.50324 | 154 ft | 13 kts | 341° |
| 2026-05-06 17:03 | 52.36515 | 13.50270 | 154 ft | 10 kts | 343° |
| 2026-05-06 17:03 | 52.36583 | 13.50231 | 154 ft | 11 kts | 339° |
| 2026-05-06 17:04 | 52.36652 | 13.50188 | 154 ft | 20 kts | 339° |
| 2026-05-06 17:04 | 52.36727 | 13.50089 | 154 ft | 16 kts | 303° |
| 2026-05-06 17:04 | 52.36766 | 13.49884 | 154 ft | 22 kts | 248° |
| 2026-05-06 17:04 | 52.36700 | 13.49621 | 154 ft | 30 kts | 250° |
| 2026-05-06 17:05 | 52.36625 | 13.49295 | 154 ft | 31 kts | 249° |
| 2026-05-06 17:05 | 52.36546 | 13.48967 | 154 ft | 31 kts | 249° |
| 2026-05-06 17:05 | 52.36499 | 13.48767 | 154 ft | 27 kts | 249° |
| 2026-05-06 17:05 | 52.36435 | 13.48492 | 154 ft | 21 kts | 258° |
| 2026-05-06 17:06 | 52.36531 | 13.48366 | 154 ft | 19 kts | 349° |
| 2026-05-06 17:06 | 52.36544 | 13.48358 | 154 ft | 0 kts | 335° |
| 2026-05-06 17:07 | 52.36635 | 13.48298 | 154 ft | 27 kts | 338° |
| 2026-05-06 17:07 | 52.36737 | 13.48379 | 154 ft | 12 kts | 68° |
| 2026-05-06 17:07 | 52.36780 | 13.48549 | 154 ft | 31 kts | 68° |
| 2026-05-06 17:07 | 52.36921 | 13.49144 | 155 ft | 88 kts | 69° |
| 2026-05-06 17:08 | 52.37216 | 13.50389 | 155 ft | 144 kts | 69° |
| 2026-05-06 17:08 | 52.37624 | 13.52112 | 224 ft | 182 kts | 69° |
| 2026-05-06 17:08 | 52.38117 | 13.54159 | 574 ft | 205 kts | 68° |
| 2026-05-06 17:08 | 52.38681 | 13.56453 | 947 ft | 231 kts | 68° |
| 2026-05-06 17:09 | 52.39308 | 13.59002 | 1531 ft | 250 kts | 68° |
| 2026-05-06 17:09 | 52.40129 | 13.61589 | 2261 ft | 261 kts | 55° |
| 2026-05-06 17:09 | 52.41425 | 13.63665 | 3163 ft | 264 kts | 27° |
| 2026-05-06 17:09 | 52.43127 | 13.64693 | 4050 ft | 267 kts | 18° |
| 2026-05-06 17:10 | 52.44917 | 13.65690 | 4821 ft | 276 kts | 18° |
| 2026-05-06 17:10 | 52.46768 | 13.66738 | 5584 ft | 285 kts | 19° |
| 2026-05-06 17:10 | 52.48683 | 13.67844 | 6353 ft | 292 kts | 19° |
| 2026-05-06 17:10 | 52.50590 | 13.68959 | 7102 ft | 298 kts | 18° |
| 2026-05-06 17:11 | 52.52635 | 13.69448 | 7857 ft | 301 kts | 352° |
| 2026-05-06 17:11 | 52.54563 | 13.68187 | 8615 ft | 303 kts | 322° |
| 2026-05-06 17:11 | 52.56026 | 13.65659 | 9377 ft | 309 kts | 305° |
| 2026-05-06 17:11 | 52.57168 | 13.62621 | 10136 ft | 316 kts | 298° |
| 2026-05-06 17:12 | 52.58198 | 13.59388 | 10894 ft | 322 kts | 296° |
| 2026-05-06 17:12 | 52.59142 | 13.56011 | 11649 ft | 327 kts | 285° |
| 2026-05-06 17:12 | 52.59233 | 13.52297 | 12405 ft | 329 kts | 256° |
| 2026-05-06 17:12 | 52.58445 | 13.48751 | 13164 ft | 332 kts | 245° |
| 2026-05-06 17:13 | 52.57420 | 13.45319 | 13921 ft | 334 kts | 242° |
| 2026-05-06 17:13 | 52.56323 | 13.42006 | 14665 ft | 335 kts | 240° |
| 2026-05-06 17:13 | 52.55188 | 13.38669 | 15416 ft | 335 kts | 240° |
| 2026-05-06 17:13 | 52.54049 | 13.35287 | 16178 ft | 333 kts | 241° |
| 2026-05-06 17:14 | 52.52962 | 13.31979 | 16921 ft | 331 kts | 242° |
| 2026-05-06 17:14 | 52.51878 | 13.28604 | 17681 ft | 328 kts | 242° |
| 2026-05-06 17:14 | 52.50832 | 13.25300 | 18431 ft | 324 kts | 242° |
| 2026-05-06 17:14 | 52.49808 | 13.22040 | 19181 ft | 319 kts | 243° |
| 2026-05-06 17:15 | 52.48819 | 13.18881 | 19921 ft | 312 kts | 243° |
| 2026-05-06 17:15 | 52.47841 | 13.15761 | 20669 ft | 303 kts | 243° |
| 2026-05-06 17:15 | 52.46889 | 13.12735 | 21376 ft | 296 kts | 242° |
| 2026-05-06 17:15 | 52.45936 | 13.09710 | 21727 ft | 301 kts | 242° |
| 2026-05-06 17:16 | 52.44962 | 13.06622 | 21979 ft | 309 kts | 242° |
| 2026-05-06 17:16 | 52.43961 | 13.03462 | 22232 ft | 316 kts | 242° |
| 2026-05-06 17:16 | 52.42931 | 13.00228 | 22486 ft | 324 kts | 242° |
| 2026-05-06 17:16 | 52.41876 | 12.96919 | 22740 ft | 331 kts | 242° |
| 2026-05-06 17:17 | 52.40802 | 12.93546 | 22994 ft | 337 kts | 242° |
| 2026-05-06 17:17 | 52.39706 | 12.90106 | 23246 ft | 344 kts | 242° |
| 2026-05-06 17:17 | 52.38585 | 12.86591 | 23394 ft | 353 kts | 242° |
| 2026-05-06 17:17 | 52.37433 | 12.82980 | 23521 ft | 363 kts | 242° |
| 2026-05-06 17:18 | 52.36249 | 12.79276 | 23648 ft | 372 kts | 242° |
| 2026-05-06 17:18 | 52.35033 | 12.75488 | 23775 ft | 380 kts | 242° |
| 2026-05-06 17:18 | 52.33790 | 12.71620 | 23901 ft | 388 kts | 242° |
| 2026-05-06 17:18 | 52.32521 | 12.67673 | 24028 ft | 395 kts | 242° |
| 2026-05-06 17:19 | 52.31232 | 12.63670 | 24153 ft | 401 kts | 242° |
| 2026-05-06 17:19 | 52.29920 | 12.59607 | 24280 ft | 406 kts | 242° |
| 2026-05-06 17:19 | 52.28594 | 12.55510 | 24405 ft | 410 kts | 242° |
| 2026-05-06 17:19 | 52.27255 | 12.51376 | 24531 ft | 413 kts | 242° |
| 2026-05-06 17:20 | 52.26205 | 12.47015 | 24646 ft | 415 kts | 259° |
| 2026-05-06 17:20 | 52.26031 | 12.42310 | 24776 ft | 417 kts | 273° |
| 2026-05-06 17:20 | 52.26446 | 12.37613 | 24897 ft | 420 kts | 282° |
| 2026-05-06 17:20 | 52.27215 | 12.32990 | 24900 ft | 425 kts | 287° |
| 2026-05-06 17:21 | 52.28133 | 12.28379 | 24902 ft | 429 kts | 288° |
| 2026-05-06 17:21 | 52.29048 | 12.23723 | 24902 ft | 433 kts | 287° |
| 2026-05-06 17:21 | 52.29880 | 12.19041 | 24903 ft | 436 kts | 285° |
| 2026-05-06 17:21 | 52.30632 | 12.14220 | 24903 ft | 440 kts | 283° |
| 2026-05-06 17:22 | 52.31323 | 12.09268 | 24903 ft | 443 kts | 282° |
| 2026-05-06 17:22 | 52.31960 | 12.04402 | 24903 ft | 445 kts | 281° |
| 2026-05-06 17:22 | 52.32596 | 11.99443 | 24903 ft | 448 kts | 281° |
| 2026-05-06 17:22 | 52.33241 | 11.94447 | 24903 ft | 450 kts | 282° |
| 2026-05-06 17:23 | 52.33902 | 11.89441 | 24922 ft | 451 kts | 282° |
| 2026-05-06 17:23 | 52.34442 | 11.84410 | 25044 ft | 449 kts | 275° |
| 2026-05-06 17:23 | 52.34589 | 11.79323 | 25170 ft | 447 kts | 272° |
| 2026-05-06 17:23 | 52.34702 | 11.74243 | 25294 ft | 446 kts | 271° |
| 2026-05-06 17:24 | 52.34811 | 11.69186 | 25417 ft | 445 kts | 271° |
| 2026-05-06 17:24 | 52.34915 | 11.64136 | 25542 ft | 444 kts | 271° |
| 2026-05-06 17:24 | 52.35016 | 11.59098 | 25666 ft | 443 kts | 271° |
| 2026-05-06 17:24 | 52.35113 | 11.54071 | 25790 ft | 442 kts | 271° |
| 2026-05-06 17:25 | 52.35210 | 11.48946 | 25917 ft | 442 kts | 271° |
| 2026-05-06 17:25 | 52.35303 | 11.44026 | 26039 ft | 441 kts | 271° |
| 2026-05-06 17:25 | 52.35399 | 11.39021 | 26163 ft | 440 kts | 271° |
| 2026-05-06 17:25 | 52.35494 | 11.34010 | 26288 ft | 440 kts | 271° |
| 2026-05-06 17:26 | 52.35587 | 11.29014 | 26413 ft | 439 kts | 271° |
| 2026-05-06 17:26 | 52.35673 | 11.24023 | 26538 ft | 439 kts | 271° |
| 2026-05-06 17:26 | 52.35755 | 11.19010 | 26663 ft | 438 kts | 271° |
| 2026-05-06 17:26 | 52.35834 | 11.14060 | 26787 ft | 438 kts | 271° |
| 2026-05-06 17:27 | 52.35911 | 11.09086 | 26912 ft | 437 kts | 271° |
| 2026-05-06 17:27 | 52.35988 | 11.04117 | 27037 ft | 437 kts | 271° |
| 2026-05-06 17:27 | 52.36064 | 10.99159 | 27161 ft | 436 kts | 271° |
| 2026-05-06 17:27 | 52.36138 | 10.94201 | 27286 ft | 435 kts | 271° |
| 2026-05-06 17:28 | 52.36210 | 10.89255 | 27411 ft | 435 kts | 271° |
| 2026-05-06 17:28 | 52.36277 | 10.84376 | 27534 ft | 434 kts | 271° |
| 2026-05-06 17:28 | 52.36245 | 10.79452 | 27658 ft | 433 kts | 264° |
| 2026-05-06 17:28 | 52.35756 | 10.74603 | 27783 ft | 431 kts | 258° |
| 2026-05-06 17:29 | 52.35171 | 10.69810 | 27907 ft | 430 kts | 258° |
| 2026-05-06 17:29 | 52.34591 | 10.65020 | 28032 ft | 428 kts | 258° |
| 2026-05-06 17:29 | 52.34015 | 10.60251 | 28156 ft | 427 kts | 258° |
| 2026-05-06 17:29 | 52.33440 | 10.55498 | 28281 ft | 426 kts | 258° |
| 2026-05-06 17:30 | 52.32867 | 10.50760 | 28405 ft | 424 kts | 258° |
| 2026-05-06 17:30 | 52.32294 | 10.46034 | 28530 ft | 423 kts | 258° |
| 2026-05-06 17:30 | 52.31717 | 10.41319 | 28655 ft | 422 kts | 258° |
| 2026-05-06 17:30 | 52.31139 | 10.36623 | 28780 ft | 421 kts | 258° |
| 2026-05-06 17:31 | 52.30562 | 10.31945 | 28905 ft | 420 kts | 258° |
| 2026-05-06 17:31 | 52.29986 | 10.27275 | 29030 ft | 419 kts | 258° |
| 2026-05-06 17:31 | 52.29404 | 10.22613 | 29155 ft | 418 kts | 258° |
| 2026-05-06 17:31 | 52.28823 | 10.17967 | 29279 ft | 417 kts | 258° |
| 2026-05-06 17:32 | 52.28240 | 10.13335 | 29404 ft | 416 kts | 258° |
| 2026-05-06 17:32 | 52.27659 | 10.08713 | 29529 ft | 415 kts | 258° |
| 2026-05-06 17:32 | 52.27077 | 10.04104 | 29654 ft | 414 kts | 258° |
| 2026-05-06 17:32 | 52.26501 | 9.99560 | 29777 ft | 413 kts | 258° |
| 2026-05-06 17:33 | 52.25918 | 9.94973 | 29902 ft | 412 kts | 258° |
| 2026-05-06 17:33 | 52.25536 | 9.90354 | 30027 ft | 411 kts | 268° |
| 2026-05-06 17:33 | 52.25672 | 9.85703 | 30152 ft | 410 kts | 278° |
| 2026-05-06 17:33 | 52.26303 | 9.81176 | 30278 ft | 409 kts | 285° |
| 2026-05-06 17:34 | 52.27066 | 9.76711 | 30402 ft | 408 kts | 285° |
| 2026-05-06 17:34 | 52.27819 | 9.72242 | 30527 ft | 407 kts | 285° |
| 2026-05-06 17:34 | 52.28562 | 9.67785 | 30651 ft | 406 kts | 285° |
| 2026-05-06 17:34 | 52.29299 | 9.63334 | 30776 ft | 406 kts | 285° |
| 2026-05-06 17:35 | 52.30034 | 9.58892 | 30901 ft | 405 kts | 284° |
| 2026-05-06 17:35 | 52.30765 | 9.54456 | 31025 ft | 404 kts | 284° |
| 2026-05-06 17:35 | 52.31492 | 9.50035 | 31150 ft | 403 kts | 284° |
| 2026-05-06 17:36 | 52.32947 | 9.41211 | 31400 ft | 401 kts | 284° |
| 2026-05-06 17:36 | 52.33671 | 9.36804 | 31525 ft | 400 kts | 284° |
| 2026-05-06 17:36 | 52.34391 | 9.32413 | 31650 ft | 400 kts | 284° |
| 2026-05-06 17:36 | 52.35109 | 9.28030 | 31775 ft | 399 kts | 284° |
| 2026-05-06 17:37 | 52.36537 | 9.19263 | 31942 ft | 399 kts | 284° |
| 2026-05-06 17:37 | 52.37963 | 9.10468 | 32081 ft | 400 kts | 284° |
| 2026-05-06 17:38 | 52.39385 | 9.01642 | 32212 ft | 401 kts | 284° |
| 2026-05-06 17:38 | 52.40794 | 8.92849 | 32335 ft | 403 kts | 284° |
| 2026-05-06 17:39 | 52.42206 | 8.83969 | 32453 ft | 403 kts | 284° |
| 2026-05-06 17:39 | 52.43619 | 8.75059 | 32562 ft | 404 kts | 284° |
| 2026-05-06 17:40 | 52.45028 | 8.66119 | 32666 ft | 405 kts | 284° |
| 2026-05-06 17:40 | 52.46435 | 8.57163 | 32766 ft | 406 kts | 284° |
| 2026-05-06 17:41 | 52.47536 | 8.50081 | 32787 ft | 408 kts | 284° |